Impacts TAF Board INFO
FOR SITUATIONAL AWARENESS. NOT TO BE USED FOR FLIGHT PLANNING PURPOSES.
IDs:

KMEM - Memphis Intl, TN, US

Issued at 0301 UTC 16 Dec 2017
Updated at 0508 UTC 16 Dec 2017
Potential Impact None Slight Moderate High
Time0454Z 16/06Z 16/07Z 16/08Z 16/09Z 16/10Z 16/11Z 16/12Z 16/13Z 16/14Z 16/15Z 16/16Z 16/17Z 16/18Z>>
Type OBS PRVL PRVL PRVL PRVL PRVL PRVL PRVL PRVL PRVL PRVL PRVL PRVL PRVL
VIS 10 >6 >6 >6 >6 >6 >6 >6 >6 >6 >6 >6 >6 >6
CIG -- -- -- -- -- -- -- -- -- -- -- -- -- --
Cover CLR FEW FEW FEW FEW FEW FEW FEW FEW FEW FEW FEW SCT SCT
FltCat VFR VFR VFR VFR VFR VFR VFR VFR VFR VFR VFR VFR VFR VFR
WX -- -- -- -- -- -- -- -- -- -- -- -- -- --
WDir 190 200 200 200 200 200 200 200 200 200 200 200 200 200
WSpd 11 7 7 7 7 7 7 7 7 7 7 7 10 10
WGst 17 -- -- -- -- -- -- -- -- -- -- -- 16 16

Raw TAF
KMEM 160301Z 1603/1706 20007KT P6SM FEW250
  FM161700 20010G16KT P6SM SCT250
  FM170000 18006KT P6SM BKN200


Raw METAR
KMEM 160454Z 19011G17KT 10SM CLR 03/M03 A3020 RMK AO2 SLP228 T00281028 $
KMEM 160354Z 20009KT 10SM CLR 03/M03 A3020 RMK AO2 SLP226 T00331028 $
KMEM 160254Z 19009KT 10SM CLR 04/M03 A3020 RMK AO2 SLP227 T00391028 50008 $

METAR Board
Radar Display
Forecast Discussion

FOR SITUATIONAL AWARENESS. NOT TO BE USED FOR FLIGHT PLANNING PURPOSES.